createdAt,value
2022-12-22T18:47:28.261Z,930.10
2022-12-22T18:48:28.947Z,930.10
2022-12-22T18:49:30.187Z,930.06
2022-12-22T18:50:29.081Z,930.05
2022-12-22T18:51:28.941Z,930.02
2022-12-22T18:52:29.011Z,930.06
2022-12-22T18:53:28.983Z,930.08
2022-12-22T18:54:28.924Z,930.08
2022-12-22T18:55:29.864Z,930.06
2022-12-22T18:56:28.854Z,930.06
2022-12-22T18:57:28.884Z,930.07
2022-12-22T18:58:28.920Z,930.09
2022-12-22T18:59:29.697Z,930.08
2022-12-22T19:00:29.625Z,930.07
2022-12-22T19:01:29.677Z,930.05
2022-12-22T19:02:29.002Z,930.04
2022-12-22T19:03:30.214Z,930.08
2022-12-22T19:04:28.828Z,930.05
2022-12-22T19:05:28.874Z,930.03
2022-12-22T19:06:29.414Z,930.03
2022-12-22T19:07:30.032Z,930.04
2022-12-22T19:08:29.422Z,930.01
2022-12-22T19:09:28.815Z,930.00
2022-12-22T19:10:29.564Z,930.03
2022-12-22T19:11:29.431Z,930.00
2022-12-22T19:12:28.688Z,930.00
2022-12-22T19:13:29.705Z,930.00
2022-12-22T19:14:28.720Z,930.02
2022-12-22T19:15:28.764Z,930.03
2022-12-22T19:16:28.763Z,930.07
2022-12-22T19:17:28.885Z,930.05
2022-12-22T19:18:28.678Z,930.06
2022-12-22T19:19:28.920Z,930.03
2022-12-22T19:20:28.671Z,930.00
2022-12-22T19:21:28.766Z,930.03
2022-12-22T19:22:28.596Z,929.98
2022-12-22T19:23:28.634Z,930.02
2022-12-22T19:24:28.648Z,929.95
2022-12-22T19:25:29.484Z,929.94
2022-12-22T19:42:29.354Z,930.18
2022-12-22T19:43:31.377Z,930.13
2022-12-22T19:44:30.383Z,930.13
2022-12-22T19:45:31.244Z,930.19
2022-12-22T19:46:31.551Z,930.20
2022-12-22T19:47:30.296Z,930.23
2022-12-22T19:48:30.289Z,930.16
2022-12-22T19:58:53.137Z,930.41
2022-12-22T19:59:53.996Z,930.40
2022-12-22T20:00:54.718Z,930.37
2022-12-22T20:03:32.051Z,930.29
2022-12-22T20:04:33.504Z,930.38
2022-12-22T20:05:32.979Z,930.37
2022-12-22T20:06:32.925Z,930.46
2022-12-22T20:07:32.944Z,930.35
2022-12-22T20:08:32.900Z,930.39
2022-12-22T20:09:32.926Z,930.43
2022-12-22T20:10:32.930Z,930.39
2022-12-22T20:11:32.823Z,930.42
2022-12-22T20:12:32.868Z,930.42
2022-12-22T20:13:32.871Z,930.37
2022-12-22T20:14:33.552Z,930.34
2022-12-22T20:15:32.844Z,930.29
2022-12-22T20:16:32.870Z,930.30
2022-12-22T20:17:32.823Z,930.35
2022-12-22T20:18:32.768Z,930.36
2022-12-22T20:19:33.582Z,930.34
2022-12-22T20:20:32.799Z,930.32
2022-12-22T20:21:32.769Z,930.36
2022-12-22T20:22:33.512Z,930.36
2022-12-22T20:23:32.809Z,930.36
2022-12-22T20:24:32.717Z,930.35
2022-12-22T20:25:32.746Z,930.37
2022-12-22T20:26:32.705Z,930.48
2022-12-22T20:27:32.657Z,930.47
2022-12-22T20:28:32.681Z,930.39
2022-12-22T20:29:32.657Z,930.49
2022-12-22T20:30:32.701Z,930.45
2022-12-22T20:31:32.672Z,930.53
2022-12-22T20:32:32.732Z,930.54
2022-12-22T20:33:32.628Z,930.54
2022-12-22T20:34:32.561Z,930.51
2022-12-22T20:35:32.685Z,930.54
2022-12-22T20:36:32.589Z,930.58
2022-12-22T20:37:32.583Z,930.59
2022-12-22T20:38:32.517Z,930.59
2022-12-22T20:39:32.558Z,930.57
2022-12-22T20:40:33.257Z,930.62
2022-12-22T20:41:32.551Z,930.62
2022-12-22T20:42:32.516Z,930.62
2022-12-22T20:43:32.501Z,930.62
2022-12-22T20:44:32.412Z,930.67
2022-12-22T20:45:32.532Z,930.66
2022-12-22T20:46:32.625Z,930.66
2022-12-22T20:47:33.234Z,930.66
2022-12-22T20:48:32.384Z,930.69
2022-12-22T20:49:32.429Z,930.63
2022-12-22T20:50:32.448Z,930.64
2022-12-22T20:51:32.460Z,930.65
2022-12-22T20:52:32.335Z,930.66
2022-12-22T20:53:33.083Z,930.66
2022-12-22T20:54:32.344Z,930.62
2022-12-22T20:55:32.385Z,930.61
2022-12-22T20:56:32.367Z,930.70
2022-12-22T20:57:32.345Z,930.71
2022-12-22T20:58:32.338Z,930.73
2022-12-22T20:59:32.283Z,930.75
2022-12-22T21:00:32.271Z,930.80
2022-12-22T21:01:32.470Z,930.78
2022-12-22T21:02:32.464Z,930.74
2022-12-22T21:03:33.239Z,930.79
2022-12-22T21:04:32.492Z,930.85
2022-12-22T21:05:32.292Z,930.79
2022-12-22T21:06:33.117Z,930.80
2022-12-22T21:07:32.222Z,930.81
2022-12-22T21:08:32.205Z,930.81
2022-12-22T21:09:32.213Z,930.83
2022-12-22T21:10:32.192Z,930.81
2022-12-22T21:11:32.208Z,930.87
2022-12-22T21:12:32.100Z,930.86
2022-12-22T21:13:32.188Z,930.85
2022-12-22T21:14:32.112Z,930.84
2022-12-22T21:15:32.144Z,930.79
2022-12-22T21:16:32.239Z,930.83
2022-12-22T21:17:32.156Z,930.83
2022-12-22T21:18:32.035Z,930.82
2022-12-22T21:19:32.782Z,930.82
2022-12-22T21:20:32.058Z,930.87
2022-12-22T21:21:31.990Z,930.87
2022-12-22T21:22:32.798Z,930.89
2022-12-22T22:12:27.948Z,931.39
2022-12-22T22:13:01.616Z,931.40
2022-12-22T22:14:01.580Z,931.41
2022-12-22T22:15:01.589Z,931.45
2022-12-22T22:16:03.387Z,931.48
2022-12-22T22:17:01.557Z,931.48
2022-12-22T22:18:06.792Z,931.48
2022-12-22T22:19:01.536Z,931.51
2022-12-22T22:20:01.477Z,931.49
2022-12-22T22:21:02.247Z,931.51
2022-12-22T22:22:01.490Z,931.50
2022-12-22T22:23:01.434Z,931.49
2022-12-22T22:24:01.492Z,931.47
2022-12-22T22:25:01.476Z,931.45
2022-12-22T22:26:01.431Z,931.49
2022-12-22T22:27:02.398Z,931.44
2022-12-22T22:28:01.433Z,931.43
2022-12-22T22:29:01.402Z,931.39
2022-12-22T22:30:01.443Z,931.46
2022-12-22T22:31:01.475Z,931.54
2022-12-22T22:32:01.305Z,931.49
2022-12-22T22:33:01.350Z,931.46
2022-12-22T22:34:01.333Z,931.51
2022-12-22T22:35:01.393Z,931.53
2022-12-22T22:36:05.800Z,931.47
2022-12-22T22:37:01.279Z,931.49
2022-12-22T22:38:01.301Z,931.49
2022-12-22T22:39:01.292Z,931.53
2022-12-22T22:40:01.267Z,931.45
2022-12-22T22:41:02.266Z,931.48
2022-12-22T22:42:01.288Z,931.45
2022-12-22T22:43:01.193Z,931.46
2022-12-22T22:44:01.175Z,931.53
2022-12-22T22:45:01.234Z,931.52
2022-12-22T22:46:01.256Z,931.54
2022-12-22T22:47:01.234Z,931.54
2022-12-22T22:48:04.946Z,931.50
2022-12-22T22:49:01.165Z,931.56
2022-12-22T22:50:01.193Z,931.57
2022-12-22T22:51:01.170Z,931.56
2022-12-22T22:52:02.020Z,931.59
2022-12-22T22:53:01.087Z,931.67
2022-12-22T22:54:01.137Z,931.65
2022-12-22T22:55:01.168Z,931.69
2022-12-22T22:56:01.155Z,931.71
2022-12-22T22:57:01.096Z,931.72
2022-12-22T22:58:01.980Z,931.73
2022-12-22T22:59:01.015Z,931.74
2022-12-22T23:00:00.993Z,931.73
2022-12-22T23:01:01.095Z,931.70
2022-12-22T23:02:01.181Z,931.70
2022-12-22T23:03:01.932Z,931.61
2022-12-22T23:04:01.141Z,931.70
2022-12-22T23:05:01.055Z,931.66
2022-12-22T23:06:01.014Z,931.68
2022-12-22T23:07:00.972Z,931.69
2022-12-22T23:08:01.638Z,931.67
2022-12-22T23:09:01.183Z,931.68
2022-12-22T23:10:01.683Z,931.66
2022-12-22T23:11:00.899Z,931.67
2022-12-22T23:12:01.271Z,931.62
2022-12-22T23:13:01.385Z,931.66
2022-12-22T23:14:00.871Z,931.66
2022-12-22T23:15:00.909Z,931.60
2022-12-22T23:16:00.887Z,931.63
2022-12-22T23:17:00.875Z,931.66
2022-12-22T23:18:01.663Z,931.65
2022-12-22T23:19:00.857Z,931.68
2022-12-22T23:20:01.611Z,931.73
2022-12-22T23:21:04.619Z,931.74
2022-12-22T23:22:01.400Z,931.81
2022-12-22T23:23:00.734Z,931.81
2022-12-22T23:24:01.776Z,931.74
2022-12-22T23:25:01.680Z,931.72
2022-12-22T23:26:01.622Z,931.73
2022-12-22T23:27:00.757Z,931.76
2022-12-22T23:28:00.717Z,931.78
2022-12-22T23:29:03.699Z,931.77
2022-12-22T23:30:00.711Z,931.77
2022-12-22T23:31:01.554Z,931.73
2022-12-22T23:32:00.736Z,931.78
2022-12-22T23:33:00.722Z,931.74
2022-12-22T23:34:00.676Z,931.68
2022-12-22T23:35:01.381Z,931.69
2022-12-22T23:36:00.649Z,931.65
2022-12-22T23:37:00.682Z,931.58
2022-12-22T23:38:00.654Z,931.54
2022-12-22T23:39:01.563Z,931.60
2022-12-22T23:40:25.069Z,931.58
2022-12-22T23:41:00.633Z,931.60
2022-12-22T23:42:00.735Z,931.61
2022-12-22T23:43:00.570Z,931.62
2022-12-22T23:44:01.325Z,931.76
2022-12-22T23:45:00.533Z,931.62
2022-12-22T23:46:01.324Z,931.63
2022-12-22T23:47:00.561Z,931.71
2022-12-22T23:48:00.555Z,931.74
2022-12-22T23:49:01.164Z,931.71
2022-12-22T23:50:00.409Z,931.75
2022-12-22T23:51:00.502Z,931.81
2022-12-22T23:52:01.330Z,931.80
2022-12-22T23:53:01.393Z,931.85
2022-12-22T23:54:00.450Z,931.75
2022-12-22T23:55:00.466Z,931.77
2022-12-22T23:56:01.154Z,931.80
2022-12-22T23:57:00.428Z,931.79
2022-12-22T23:58:00.448Z,931.83
2022-12-22T23:59:02.778Z,931.81
